Time;durP1;ratioP1;P1;durP2;ratioP2;P2;SDS_P1;SDS_P2;PMS_P1;PMS_P2;Temp;Humidity;BMP_temperature;BMP_pressure;BME280_temperature;BME280_humidity;BME280_pressure;Samples;Min_cycle;Max_cycle;Signal;HPM_P1;HPM_P2
2023/06/14 00:00:05;;;;;;;19.90;8.55;;;;;;;18.58;53.89;101255.47;4984679;28;20030;-82
2023/06/14 00:02:31;;;;;;;19.75;8.65;;;;;;;18.64;54.05;101265.16;4988207;28;20073;-62
2023/06/14 00:04:56;;;;;;;19.15;8.63;;;;;;;18.56;54.59;101262.63;4985470;28;20452;-82
2023/06/14 00:07:36;;;;;;;20.73;8.32;;;;;;;18.38;54.38;101273.75;4986829;28;20037;-83
2023/06/14 00:10:04;;;;;;;20.17;8.50;;;;;;;18.20;55.09;101269.66;4980643;28;20504;-79
2023/06/14 00:12:29;;;;;;;20.45;9.10;;;;;;;18.07;55.01;101264.56;4987848;28;20117;-60
2023/06/14 00:14:55;;;;;;;20.52;8.80;;;;;;;18.15;54.67;101266.22;4984400;28;20177;-68
2023/06/14 00:17:20;;;;;;;19.70;8.45;;;;;;;18.04;54.67;101269.09;4986505;28;20394;-60
2023/06/14 00:19:46;;;;;;;21.23;8.80;;;;;;;18.14;53.31;101272.47;4986614;28;20022;-61
2023/06/14 00:22:12;;;;;;;21.33;8.38;;;;;;;18.08;53.56;101271.66;4984942;28;20051;-66
2023/06/14 00:24:37;;;;;;;20.73;8.52;;;;;;;18.14;53.16;101275.13;4987759;28;20026;-61
2023/06/14 00:27:03;;;;;;;20.08;8.10;;;;;;;18.18;53.10;101282.19;4984514;28;20035;-68
2023/06/14 00:29:28;;;;;;;19.83;8.05;;;;;;;18.21;53.23;101276.78;4987347;28;20045;-65
2023/06/14 00:31:53;;;;;;;19.98;8.35;;;;;;;18.17;52.54;101281.28;4985114;28;20030;-59
2023/06/14 00:34:19;;;;;;;19.27;7.75;;;;;;;18.33;51.68;101275.63;4986062;28;20035;-66
2023/06/14 00:36:44;;;;;;;19.80;8.02;;;;;;;18.24;51.40;101282.94;4986368;28;20478;-68
2023/06/14 00:39:09;;;;;;;19.60;7.80;;;;;;;18.21;51.37;101269.63;4984907;28;20039;-68
2023/06/14 00:41:35;;;;;;;19.08;7.47;;;;;;;18.03;52.24;101272.69;4987390;28;20033;-60
2023/06/14 00:44:00;;;;;;;18.58;7.35;;;;;;;17.94;51.91;101274.63;4983972;28;20031;-62
2023/06/14 00:46:25;;;;;;;19.88;7.65;;;;;;;17.94;51.83;101274.63;4986866;28;20488;-68
2023/06/14 00:48:51;;;;;;;18.95;7.70;;;;;;;17.89;52.42;101276.47;4985493;28;20105;-68
2023/06/14 00:51:17;;;;;;;18.92;7.63;;;;;;;17.98;51.60;101283.44;4985482;28;20046;-68
2023/06/14 00:53:46;;;;;;;18.45;7.28;;;;;;;17.92;51.34;101276.44;4986479;28;20070;-67
2023/06/14 00:56:13;;;;;;;19.30;7.25;;;;;;;18.10;49.80;101282.31;4984583;28;20109;-66
2023/06/14 00:58:39;;;;;;;18.92;7.38;;;;;;;18.00;50.81;101276.31;4986676;28;20541;-68
2023/06/14 01:01:05;;;;;;;18.77;7.00;;;;;;;17.99;50.37;101279.00;4983941;28;20031;-68
2023/06/14 01:03:31;;;;;;;21.40;7.20;;;;;;;17.95;50.51;101278.16;4987062;28;20428;-60
2023/06/14 01:06:10;;;;;;;19.30;7.20;;;;;;;17.74;51.40;101288.34;4984422;28;20422;-63
2023/06/14 01:08:51;;;;;;;18.90;7.25;;;;;;;17.73;50.84;101289.22;4987249;28;20034;-71
2023/06/14 01:11:32;;;;;;;19.42;7.10;;;;;;;17.57;52.33;101274.38;4982988;28;20031;-80
2023/06/14 01:14:01;;;;;;;18.52;7.05;;;;;;;17.56;51.93;101288.66;4984116;28;20062;-75
2023/06/14 01:16:28;;;;;;;18.25;6.63;;;;;;;17.55;51.73;101281.56;4986304;28;20038;-83
2023/06/14 01:18:56;;;;;;;19.65;7.10;;;;;;;17.55;51.35;101286.91;4984438;28;20030;-76
2023/06/14 01:21:26;;;;;;;18.77;7.03;;;;;;;17.47;51.68;101287.03;4985108;28;20078;-81
2023/06/14 01:23:52;;;;;;;20.05;6.82;;;;;;;17.46;50.45;101282.63;4984693;28;20481;-77
2023/06/14 01:26:22;;;;;;;18.63;6.68;;;;;;;17.40;50.90;101280.03;4984782;28;20413;-82
2023/06/14 01:28:49;;;;;;;18.02;6.50;;;;;;;17.40;51.52;101283.59;4985017;28;20030;-77
2023/06/14 01:31:19;;;;;;;18.60;6.90;;;;;;;17.37;50.54;101282.75;4984429;28;20039;-78
2023/06/14 01:33:45;;;;;;;18.67;6.72;;;;;;;17.33;50.11;101281.94;4985325;28;20469;-80
2023/06/14 01:36:12;;;;;;;18.25;6.40;;;;;;;17.32;50.48;101288.19;4983572;28;20049;-82
2023/06/14 01:38:38;;;;;;;19.48;6.45;;;;;;;17.29;49.53;101285.56;4986322;28;20031;-75
2023/06/14 01:41:04;;;;;;;19.52;6.60;;;;;;;17.20;50.43;101291.06;4983006;28;20030;-80
2023/06/14 01:43:31;;;;;;;19.17;6.43;;;;;;;17.22;51.42;101289.25;4986159;28;20042;-80
2023/06/14 01:45:57;;;;;;;18.88;6.55;;;;;;;17.20;50.00;101286.59;4983956;28;20018;-83
2023/06/14 01:48:23;;;;;;;18.63;6.50;;;;;;;17.16;49.87;101289.34;4984949;28;20069;-83
2023/06/14 01:50:52;;;;;;;17.25;6.13;;;;;;;17.10;50.03;101289.44;4984600;28;20057;-79
2023/06/14 01:53:17;;;;;;;17.63;6.38;;;;;;;17.10;49.62;101284.09;4984306;28;20069;-83
2023/06/14 01:55:43;;;;;;;19.13;6.60;;;;;;;17.05;49.77;101278.81;4985263;28;20098;-68
2023/06/14 01:58:13;;;;;;;18.00;6.50;;;;;;;17.02;49.71;101277.09;4982959;28;20460;-64
2023/06/14 02:00:38;;;;;;;18.35;6.53;;;;;;;17.00;50.60;101278.03;4985934;28;20029;-64
2023/06/14 02:03:04;;;;;;;19.55;6.57;;;;;;;16.93;49.90;101274.53;4982499;28;20036;-66
2023/06/14 02:05:30;;;;;;;18.65;6.72;;;;;;;16.87;49.70;101283.53;4985558;28;20486;-68
2023/06/14 02:07:55;;;;;;;17.85;6.40;;;;;;;16.80;50.00;101278.28;4983470;28;20026;-62
2023/06/14 02:10:21;;;;;;;19.92;6.82;;;;;;;16.74;50.39;101280.13;4984140;28;20077;-68
2023/06/14 02:12:46;;;;;;;20.17;6.65;;;;;;;16.71;50.47;101280.16;4984435;28;20054;-68
2023/06/14 02:15:19;;;;;;;18.80;6.63;;;;;;;16.64;50.76;101286.50;4983181;28;20019;-65
2023/06/14 02:17:47;;;;;;;17.77;6.47;;;;;;;16.57;51.00;101271.47;4984667;28;20477;-60
2023/06/14 02:20:13;;;;;;;19.15;6.57;;;;;;;16.53;50.76;101275.09;4983000;28;20054;-61
2023/06/14 02:22:39;;;;;;;19.55;7.00;;;;;;;16.50;50.97;101280.50;4985331;28;20135;-63
2023/06/14 02:25:05;;;;;;;19.15;6.70;;;;;;;16.48;51.26;101279.59;4982320;28;20027;-60
2023/06/14 02:27:30;;;;;;;19.27;6.50;;;;;;;16.39;51.03;101289.47;4985275;28;20520;-61
2023/06/14 02:29:56;;;;;;;19.15;6.70;;;;;;;16.35;51.23;101282.44;4983221;28;20026;-68
2023/06/14 02:32:21;;;;;;;18.73;6.65;;;;;;;16.32;51.52;101285.13;4984241;28;20038;-65
2023/06/14 02:34:49;;;;;;;19.95;6.90;;;;;;;16.29;51.64;101285.16;4984208;28;20030;-68
2023/06/14 02:37:15;;;;;;;19.17;6.30;;;;;;;16.26;52.31;101290.53;4982662;28;20124;-59
2023/06/14 02:39:40;;;;;;;19.90;6.50;;;;;;;16.17;52.04;101291.53;4984798;28;20082;-65
2023/06/14 02:42:06;;;;;;;19.27;6.65;;;;;;;16.16;51.99;101292.47;4982030;28;20509;-68
2023/06/14 02:44:32;;;;;;;19.55;6.75;;;;;;;16.12;52.02;101293.41;4985324;28;20030;-68
2023/06/14 02:46:58;;;;;;;20.55;6.68;;;;;;;16.09;52.43;101289.84;4982613;28;20413;-68
2023/06/14 02:49:24;;;;;;;20.95;6.55;;;;;;;16.04;52.31;101296.13;4984109;28;20023;-64
2023/06/14 02:51:49;;;;;;;18.42;6.65;;;;;;;16.02;52.83;101295.28;4983885;28;20041;-69
2023/06/14 02:54:15;;;;;;;18.88;6.70;;;;;;;16.02;52.38;101295.28;4982841;28;20498;-70
2023/06/14 02:56:40;;;;;;;18.90;6.45;;;;;;;16.03;52.67;101296.16;4984834;28;20142;-60
2023/06/14 02:59:07;;;;;;;19.42;6.80;;;;;;;15.98;52.94;101292.66;4982137;28;20029;-68
2023/06/14 03:01:35;;;;;;;21.88;6.75;;;;;;;15.92;53.07;101292.75;4985168;28;20030;-68
2023/06/14 03:04:04;;;;;;;18.70;7.15;;;;;;;15.88;53.68;101299.00;4982005;28;20122;-60
2023/06/14 03:06:30;;;;;;;19.08;7.40;;;;;;;15.85;53.19;101294.56;4985321;28;20105;-82
2023/06/14 03:08:59;;;;;;;21.70;7.85;;;;;;;15.86;53.17;101301.69;4982630;28;20113;-80
2023/06/14 03:11:25;;;;;;;21.27;7.07;;;;;;;15.79;53.54;101297.31;4984057;28;20143;-72
2023/06/14 03:13:51;;;;;;;20.98;6.93;;;;;;;15.83;53.72;101312.38;4983744;28;20099;-84
2023/06/14 03:16:19;;;;;;;19.63;6.85;;;;;;;15.76;53.86;101310.63;4981729;28;20129;-83
2023/06/14 03:18:45;;;;;;;20.70;7.35;;;;;;;15.73;53.92;101315.97;4984032;28;20041;-76
2023/06/14 03:21:11;;;;;;;19.50;6.97;;;;;;;15.64;55.39;101312.50;4982031;28;20054;-81
2023/06/14 03:23:36;;;;;;;20.35;7.35;;;;;;;15.62;54.44;101308.09;4984824;28;20465;-79
2023/06/14 03:26:02;;;;;;;20.08;7.40;;;;;;;15.61;54.70;101311.63;4981958;28;20035;-83
2023/06/14 03:28:27;;;;;;;20.17;7.10;;;;;;;15.56;55.22;101319.69;4984353;28;20035;-74
2023/06/14 03:30:52;;;;;;;21.70;7.43;;;;;;;15.50;55.09;101319.75;4982925;28;20097;-84
2023/06/14 03:33:18;;;;;;;20.40;7.05;;;;;;;15.53;55.42;101317.03;4983282;28;20027;-83
2023/06/14 03:35:43;;;;;;;20.92;7.10;;;;;;;15.48;55.25;101318.88;4984069;28;20065;-77
2023/06/14 03:38:09;;;;;;;19.17;6.60;;;;;;;15.45;55.45;101316.22;4981673;28;20027;-82
2023/06/14 03:40:34;;;;;;;20.88;6.95;;;;;;;15.43;55.99;101318.03;4984916;28;20030;-78
2023/06/14 03:43:00;;;;;;;19.13;6.78;;;;;;;15.44;56.19;101319.78;4981737;28;20545;-78
2023/06/14 03:45:25;;;;;;;19.17;6.70;;;;;;;15.40;57.17;101334.03;4983697;28;20043;-84
2023/06/14 03:47:51;;;;;;;19.33;6.85;;;;;;;15.39;56.08;101326.94;4983636;28;20124;-83
2023/06/14 03:50:18;;;;;;;18.55;6.43;;;;;;;15.34;56.75;101332.28;4986473;28;20152;-85
2023/06/14 03:52:44;;;;;;;20.52;7.10;;;;;;;15.36;58.01;101332.28;4987504;28;20030;-59
2023/06/14 03:55:10;;;;;;;19.65;6.80;;;;;;;15.35;57.23;101323.41;4985224;28;20022;-61
2023/06/14 03:57:35;;;;;;;20.00;6.80;;;;;;;15.34;56.79;101325.19;4988324;28;20038;-68
2023/06/14 04:00:01;;;;;;;19.25;6.65;;;;;;;15.33;56.99;101334.09;4985102;28;20022;-65
2023/06/14 04:02:28;;;;;;;19.98;6.65;;;;;;;15.33;57.34;101331.44;4987499;28;20442;-67
2023/06/14 04:04:54;;;;;;;18.58;6.63;;;;;;;15.32;57.22;101340.31;4985958;28;20077;-70
2023/06/14 04:07:20;;;;;;;25.85;7.63;;;;;;;15.38;57.33;101335.81;4986263;28;20494;-68
2023/06/14 04:09:46;;;;;;;20.13;7.07;;;;;;;15.36;57.08;101340.28;4987195;28;20038;-70
2023/06/14 04:12:12;;;;;;;20.52;6.88;;;;;;;15.40;58.05;101344.69;4985128;28;20037;-62
2023/06/14 04:14:38;;;;;;;19.33;7.03;;;;;;;15.44;59.09;101343.78;4987897;28;20465;-68
2023/06/14 04:17:03;;;;;;;19.75;6.75;;;;;;;15.40;58.15;101339.38;4983507;28;20035;-69
2023/06/14 04:19:29;;;;;;;19.20;7.03;;;;;;;15.40;58.30;101344.69;4987285;28;20121;-68
2023/06/14 04:21:54;;;;;;;19.08;6.93;;;;;;;15.46;58.42;101353.50;4985573;28;20059;-61
2023/06/14 04:24:20;;;;;;;19.80;7.38;;;;;;;15.50;58.33;101354.38;4986110;28;20034;-65
2023/06/14 04:26:47;;;;;;;21.35;7.07;;;;;;;15.52;59.00;101357.91;4986572;28;20045;-64
2023/06/14 04:29:14;;;;;;;18.63;7.07;;;;;;;15.55;59.74;101351.66;4985141;28;20065;-63
2023/06/14 04:31:44;;;;;;;20.90;6.80;;;;;;;15.56;59.39;101354.31;4987736;28;20351;-68
2023/06/14 04:34:15;;;;;;;20.13;7.05;;;;;;;15.58;58.95;101356.97;4984524;28;20074;-68
2023/06/14 04:36:41;;;;;;;20.52;7.15;;;;;;;15.59;58.88;101348.97;4987199;28;20519;-80
2023/06/14 04:39:07;;;;;;;20.05;7.45;;;;;;;15.59;60.57;101350.75;4984346;28;20030;-79
2023/06/14 04:41:32;;;;;;;18.30;7.20;;;;;;;15.67;59.47;101357.78;4987180;28;20031;-82
2023/06/14 04:44:01;;;;;;;19.63;6.97;;;;;;;15.73;58.60;101361.28;4984779;28;20039;-77
2023/06/14 04:46:28;;;;;;;20.35;7.13;;;;;;;15.76;59.71;101359.47;4986539;28;20034;-82
2023/06/14 04:48:54;;;;;;;19.40;7.00;;;;;;;15.76;60.19;101350.63;4985305;28;20026;-79
2023/06/14 04:51:22;;;;;;;21.60;7.28;;;;;;;15.83;59.48;101355.03;4985397;28;20508;-83
2023/06/14 04:53:49;;;;;;;19.10;6.70;;;;;;;15.91;59.67;101361.16;4986213;28;20513;-81
2023/06/14 04:56:14;;;;;;;25.35;7.63;;;;;;;15.92;59.51;101357.59;4984505;28;20052;-81
2023/06/14 04:58:40;;;;;;;19.77;7.25;;;;;;;15.96;59.30;101362.00;4986959;28;20468;-79
2023/06/14 05:01:05;;;;;;;21.42;7.10;;;;;;;15.94;59.86;101357.56;4983433;28;20485;-80
2023/06/14 05:03:31;;;;;;;18.60;7.00;;;;;;;16.05;59.50;101369.03;4986603;28;20042;-77
2023/06/14 05:05:56;;;;;;;21.42;7.40;;;;;;;16.13;60.10;101367.13;4984623;28;20604;-82
2023/06/14 05:08:25;;;;;;;19.85;6.93;;;;;;;16.16;59.50;101359.13;4985497;28;20058;-81
2023/06/14 05:10:51;;;;;;;20.50;7.20;;;;;;;16.24;59.12;101367.03;4985178;28;20038;-74
2023/06/14 05:13:17;;;;;;;19.52;6.97;;;;;;;16.31;59.43;101374.09;4984390;28;20073;-78
2023/06/14 05:15:42;;;;;;;19.88;7.65;;;;;;;16.36;59.36;101364.22;4986620;28;20104;-82
2023/06/14 05:18:09;;;;;;;20.80;7.45;;;;;;;16.42;59.00;101371.28;4983631;28;20055;-83
2023/06/14 05:20:36;;;;;;;19.50;7.07;;;;;;;16.51;58.49;101370.28;4986962;28;20026;-82
2023/06/14 05:23:02;;;;;;;20.38;7.20;;;;;;;16.60;58.10;101379.97;4983718;28;20130;-77
2023/06/14 05:25:28;;;;;;;19.25;7.35;;;;;;;16.62;58.74;101373.72;4985845;28;20432;-84
2023/06/14 05:27:53;;;;;;;23.15;7.32;;;;;;;16.60;60.00;101386.22;4983687;28;20030;-84
2023/06/14 05:30:19;;;;;;;19.33;7.40;;;;;;;16.70;58.74;101381.63;4984766;28;20090;-82
2023/06/14 05:32:44;;;;;;;19.15;7.18;;;;;;;16.76;58.50;101383.34;4985826;28;20030;-84
2023/06/14 05:35:10;;;;;;;20.92;7.20;;;;;;;16.85;57.76;101372.56;4983526;28;20086;-62
2023/06/14 05:37:36;;;;;;;18.95;6.90;;;;;;;16.90;57.41;101378.72;4986397;28;20034;-84
2023/06/14 05:40:04;;;;;;;21.55;7.43;;;;;;;16.94;57.07;101385.81;4983332;28;20081;-83
2023/06/14 05:42:30;;;;;;;18.92;7.10;;;;;;;17.02;56.62;101377.69;4984917;28;20042;-69
2023/06/14 05:44:55;;;;;;;19.08;7.30;;;;;;;17.08;57.18;101381.16;4984063;28;20049;-81
2023/06/14 05:47:21;;;;;;;20.50;7.20;;;;;;;17.13;57.24;101390.91;4984542;28;20058;-83
2023/06/14 05:49:46;;;;;;;20.23;7.00;;;;;;;17.17;57.03;101387.25;4981259;28;20033;-80
2023/06/14 05:52:12;;;;;;;21.65;7.07;;;;;;;17.22;56.38;101396.09;4975434;28;20033;-71
2023/06/14 05:54:38;;;;;;;21.17;7.28;;;;;;;17.26;56.40;101389.81;4977587;28;20034;-61
2023/06/14 05:57:05;;;;;;;37.72;9.13;;;;;;;17.35;55.70;101395.00;4979865;28;20382;-62
2023/06/14 05:59:31;;;;;;;23.77;7.20;;;;;;;17.39;55.22;101391.38;4975068;28;20039;-68
2023/06/14 06:01:56;;;;;;;19.52;6.68;;;;;;;17.43;55.55;101400.25;4977205;28;20034;-68
2023/06/14 06:04:23;;;;;;;20.58;6.85;;;;;;;17.50;56.33;101395.66;4978022;28;20061;-67
2023/06/14 06:06:48;;;;;;;19.90;6.60;;;;;;;17.57;56.38;101397.34;4980559;28;20022;-68
2023/06/14 06:09:16;;;;;;;20.85;6.97;;;;;;;17.65;56.19;101403.47;4979049;28;20046;-71
2023/06/14 06:11:41;;;;;;;20.55;7.05;;;;;;;17.70;55.23;101408.72;4977558;28;20142;-66
2023/06/14 06:14:07;;;;;;;20.05;6.88;;;;;;;17.70;55.60;101403.38;4975177;28;20043;-66
2023/06/14 06:16:33;;;;;;;22.45;6.80;;;;;;;17.77;55.02;101405.91;4969289;28;20035;-61
2023/06/14 06:18:59;;;;;;;21.42;6.82;;;;;;;17.86;55.76;101409.34;4972743;28;20022;-60
2023/06/14 06:21:24;;;;;;;19.92;6.63;;;;;;;17.96;55.02;101411.00;4972681;28;20047;-62
2023/06/14 06:23:50;;;;;;;19.00;6.53;;;;;;;18.01;55.04;101414.44;4977420;28;20034;-64
2023/06/14 06:26:15;;;;;;;18.73;6.68;;;;;;;18.08;54.49;101418.78;4975471;28;20141;-66
2023/06/14 06:28:40;;;;;;;19.88;6.68;;;;;;;18.16;55.19;101417.75;4973784;28;20026;-61
2023/06/14 06:31:06;;;;;;;20.50;6.47;;;;;;;18.27;55.06;101415.78;4976956;28;20035;-60
2023/06/14 06:33:31;;;;;;;19.45;6.60;;;;;;;18.34;54.12;101428.13;4980128;28;20496;-69
2023/06/14 06:35:57;;;;;;;19.85;6.50;;;;;;;18.42;54.15;101427.97;4983965;28;20034;-67
2023/06/14 06:38:22;;;;;;;20.45;6.00;;;;;;;18.50;54.18;101427.84;4978459;28;20035;-69
2023/06/14 06:40:47;;;;;;;19.45;6.35;;;;;;;18.55;51.88;101432.22;4975991;28;20434;-71
2023/06/14 06:43:13;;;;;;;18.30;6.28;;;;;;;18.64;52.81;101439.19;4977559;28;20062;-65
2023/06/14 06:45:39;;;;;;;20.45;6.15;;;;;;;18.79;53.05;101440.66;4977446;28;20022;-64
2023/06/14 06:48:05;;;;;;;19.42;5.65;;;;;;;18.88;51.45;101442.31;4974092;28;20041;-67
2023/06/14 06:50:30;;;;;;;18.88;5.82;;;;;;;18.97;51.91;101442.09;4978083;28;20031;-66
2023/06/14 06:52:56;;;;;;;18.38;5.60;;;;;;;19.05;51.08;101442.81;4977825;28;20042;-66
2023/06/14 06:55:21;;;;;;;18.30;5.65;;;;;;;19.13;51.31;101445.31;4974991;28;20492;-74
2023/06/14 06:57:47;;;;;;;20.30;5.95;;;;;;;19.19;50.51;101447.00;4976322;28;20038;-71
2023/06/14 07:00:12;;;;;;;18.13;5.70;;;;;;;19.23;49.53;101443.34;4977102;28;20062;-71
2023/06/14 07:02:38;;;;;;;19.70;5.95;;;;;;;19.31;50.12;101446.75;4976118;28;20043;-73
2023/06/14 07:05:04;;;;;;;17.35;5.60;;;;;;;19.42;50.75;101452.72;4977635;28;20389;-68
2023/06/14 07:07:29;;;;;;;19.70;5.93;;;;;;;19.46;48.88;101454.41;4977165;28;20034;-71
2023/06/14 07:09:57;;;;;;;19.17;6.00;;;;;;;19.59;50.56;101459.50;4981280;28;20026;-69
2023/06/14 07:12:23;;;;;;;19.45;5.82;;;;;;;19.64;49.17;101461.16;4982538;28;20035;-61
2023/06/14 07:14:48;;;;;;;17.92;5.60;;;;;;;19.69;49.03;101456.56;4978222;28;20097;-60
2023/06/14 07:17:13;;;;;;;18.58;5.65;;;;;;;19.77;48.90;101468.91;4973376;28;20034;-62
2023/06/14 07:19:39;;;;;;;18.83;5.80;;;;;;;19.85;48.50;101465.16;4976064;28;20034;-65
2023/06/14 07:22:04;;;;;;;16.77;5.35;;;;;;;19.94;48.45;101460.47;4977059;28;20065;-72
2023/06/14 07:24:29;;;;;;;18.23;5.30;;;;;;;20.09;49.16;101473.50;4980687;28;20027;-71
2023/06/14 07:26:56;;;;;;;19.58;5.72;;;;;;;20.20;48.07;101468.72;4977862;28;20051;-65
2023/06/14 07:29:21;;;;;;;18.48;5.72;;;;;;;20.27;47.69;101468.56;4979799;28;20383;-60
2023/06/14 07:31:47;;;;;;;18.35;5.30;;;;;;;20.39;47.54;101481.69;4976759;28;20031;-67
2023/06/14 07:34:13;;;;;;;19.33;5.70;;;;;;;20.46;46.74;101480.59;4982352;28;20038;-76
2023/06/14 07:36:38;;;;;;;19.10;5.88;;;;;;;20.49;46.70;101485.88;4981230;28;20027;-80
2023/06/14 07:39:05;;;;;;;16.55;5.57;;;;;;;20.56;46.56;101481.22;4979709;28;20039;-62
2023/06/14 07:41:31;;;;;;;17.52;5.78;;;;;;;20.66;46.91;101488.16;4979740;28;20532;-68
2023/06/14 07:43:56;;;;;;;22.13;5.63;;;;;;;20.82;46.94;101490.38;4979355;28;20035;-68
2023/06/14 07:46:22;;;;;;;18.75;5.47;;;;;;;20.92;46.46;101486.50;4979148;28;20117;-61
2023/06/14 07:48:48;;;;;;;18.50;5.57;;;;;;;21.05;46.29;101495.97;4981154;28;20111;-65
2023/06/14 07:51:13;;;;;;;23.40;5.50;;;;;;;21.18;46.18;101490.25;4976960;28;20480;-72
2023/06/14 07:53:38;;;;;;;18.05;5.28;;;;;;;21.35;46.21;101496.00;4983139;28;20088;-75
2023/06/14 07:56:04;;;;;;;16.85;5.60;;;;;;;21.42;44.95;101494.00;4976807;28;20422;-81
2023/06/14 07:58:29;;;;;;;16.85;5.40;;;;;;;21.49;44.56;101489.31;4975366;28;20027;-84
2023/06/14 08:00:55;;;;;;;16.35;5.35;;;;;;;21.58;44.98;101506.09;4977764;28;20441;-76
2023/06/14 08:03:22;;;;;;;19.85;5.40;;;;;;;21.68;45.24;101501.31;4979194;28;20043;-84
2023/06/14 08:05:47;;;;;;;16.65;5.40;;;;;;;21.77;43.84;101498.31;4980625;28;20062;-74
2023/06/14 08:08:13;;;;;;;19.20;5.30;;;;;;;21.79;43.73;101505.47;4987967;28;20504;-85
2023/06/14 08:10:38;;;;;;;19.20;5.15;;;;;;;21.89;43.19;101499.72;4985467;28;20126;-85
2023/06/14 08:13:03;;;;;;;14.60;4.80;;;;;;;22.04;43.39;101505.53;4986434;28;20466;-85
2023/06/14 08:15:29;;;;;;;19.23;5.38;;;;;;;22.16;41.84;101501.53;4986751;28;20394;-85
2023/06/14 08:17:54;;;;;;;15.95;5.00;;;;;;;22.25;42.11;101501.22;4985256;28;20102;-86
2023/06/14 08:20:20;;;;;;;16.58;4.80;;;;;;;22.41;42.88;101505.19;4987707;28;20030;-82
2023/06/14 08:22:47;;;;;;;15.45;4.70;;;;;;;22.51;41.04;101500.34;4984492;28;20074;-85
2023/06/14 08:25:13;;;;;;;15.73;4.68;;;;;;;22.67;42.06;101503.38;4987556;28;20489;-86
2023/06/14 08:27:38;;;;;;;16.92;4.88;;;;;;;22.79;41.41;101499.38;4985412;28;20039;-73
2023/06/14 08:30:04;;;;;;;17.77;4.60;;;;;;;22.94;41.23;101497.94;4986299;28;20039;-85
2023/06/14 08:32:30;;;;;;;15.35;4.70;;;;;;;23.09;41.55;101501.84;4986184;28;20034;-88
2023/06/14 08:34:55;;;;;;;18.83;4.85;;;;;;;23.22;40.92;101497.78;4984103;28;20110;-61
2023/06/14 08:37:21;;;;;;;16.35;5.05;;;;;;;23.22;40.31;101497.78;4987546;28;20396;-82
2023/06/14 08:39:46;;;;;;;15.60;4.38;;;;;;;23.28;39.66;101489.44;4984181;28;20043;-83
2023/06/14 08:42:14;;;;;;;16.50;4.50;;;;;;;23.38;39.97;101495.38;4987199;28;20034;-82
2023/06/14 08:44:39;;;;;;;15.45;3.90;;;;;;;23.47;38.09;101497.72;4984638;28;20057;-86
2023/06/14 08:47:07;;;;;;;17.27;4.07;;;;;;;23.47;37.59;101496.81;4985956;28;20065;-87
2023/06/14 08:49:32;;;;;;;15.35;4.10;;;;;;;23.65;38.32;101497.94;4986130;28;20034;-87
2023/06/14 08:51:59;;;;;;;15.80;4.10;;;;;;;23.68;36.44;101493.28;4984743;28;20550;-84
2023/06/14 08:54:30;;;;;;;20.48;4.60;;;;;;;23.79;36.73;101498.22;4986719;28;20030;-87
2023/06/14 08:56:59;;;;;;;16.92;4.10;;;;;;;24.04;36.56;101494.53;4984614;28;20105;-78
2023/06/14 08:59:26;;;;;;;11.25;3.63;;;;;;;24.00;36.50;101492.94;4983367;28;20031;-86
2023/06/14 09:01:54;;;;;;;15.10;4.10;;;;;;;23.98;36.30;101495.72;4986889;28;20035;-82
2023/06/14 09:04:21;;;;;;;14.25;4.00;;;;;;;24.10;36.86;101488.91;4984052;28;20022;-86
2023/06/14 09:06:52;;;;;;;14.43;4.03;;;;;;;24.12;36.05;101495.13;4986534;28;20034;-61
2023/06/14 09:09:20;;;;;;;18.40;4.17;;;;;;;24.16;36.73;101498.56;4984118;28;20035;-88
2023/06/14 09:11:46;;;;;;;12.43;3.85;;;;;;;24.39;36.21;101507.50;4986130;28;20023;-86
2023/06/14 09:14:11;;;;;;;15.68;3.92;;;;;;;24.43;35.92;101496.50;4984892;28;20034;-61
2023/06/14 09:16:37;;;;;;;12.85;3.70;;;;;;;24.55;36.01;101505.88;4984989;28;20027;-79
2023/06/14 09:19:02;;;;;;;9.60;3.50;;;;;;;24.60;33.72;101497.63;4985851;28;20054;-74
2023/06/14 09:21:27;;;;;;;10.98;3.50;;;;;;;24.68;33.82;101499.03;4973355;28;20079;-81
2023/06/14 09:23:53;;;;;;;13.75;3.75;;;;;;;24.78;33.74;101498.63;4973319;28;20034;-69
2023/06/14 09:26:19;;;;;;;15.40;3.58;;;;;;;25.04;34.13;101505.53;4972977;28;20039;-71
2023/06/14 09:28:49;;;;;;;10.15;3.22;;;;;;;25.11;32.99;101498.03;4973407;28;20102;-71
2023/06/14 09:31:16;;;;;;;14.38;3.10;;;;;;;24.98;32.39;101509.41;4975395;28;20023;-72
2023/06/14 09:33:47;;;;;;;12.60;3.13;;;;;;;25.08;31.95;101511.66;4976916;28;20043;-82
2023/06/14 09:36:16;;;;;;;9.52;3.10;;;;;;;25.12;31.82;101506.06;4980121;28;20066;-72
2023/06/14 09:38:41;;;;;;;8.52;2.90;;;;;;;25.36;30.97;101503.19;4979909;28;20109;-65
2023/06/14 09:41:06;;;;;;;9.52;2.72;;;;;;;25.41;31.05;101503.81;4975626;28;20114;-80
2023/06/14 09:43:33;;;;;;;10.20;2.80;;;;;;;25.55;30.09;101504.03;4976273;28;20038;-65
2023/06/14 09:46:00;;;;;;;11.27;2.78;;;;;;;25.62;30.32;101518.19;4977403;28;20042;-69
2023/06/14 09:48:26;;;;;;;10.82;2.92;;;;;;;25.79;30.13;101502.94;4976576;28;20034;-70
2023/06/14 09:50:52;;;;;;;11.32;2.50;;;;;;;25.86;29.79;101505.28;4978062;28;20038;-63
2023/06/14 09:53:21;;;;;;;8.82;2.42;;;;;;;25.82;29.59;101509.09;4978229;28;20113;-68
2023/06/14 09:55:49;;;;;;;11.30;2.65;;;;;;;25.81;29.06;101501.03;4977925;28;20034;-70
2023/06/14 09:58:16;;;;;;;20.13;2.83;;;;;;;25.96;28.88;101523.75;4980952;28;20026;-79
2023/06/14 10:00:43;;;;;;;9.25;2.78;;;;;;;26.06;28.92;101512.41;4975907;28;20042;-77
2023/06/14 10:03:18;;;;;;;10.15;2.60;;;;;;;26.52;28.53;101506.47;4978143;28;20506;-78
2023/06/14 10:05:46;;;;;;;9.48;2.80;;;;;;;27.25;27.59;101517.06;4974808;28;20023;-77
2023/06/14 10:08:17;;;;;;;12.32;2.70;;;;;;;28.71;26.27;101515.00;4977985;28;20019;-72
2023/06/14 10:10:44;;;;;;;9.10;2.67;;;;;;;30.45;24.19;101515.59;4976522;28;20121;-77
2023/06/14 10:13:11;;;;;;;9.02;2.60;;;;;;;31.89;22.47;101512.53;4978509;28;20088;-79
2023/06/14 10:16:00;;;;;;;11.75;2.70;;;;;;;32.74;23.01;101516.13;4976537;28;20514;-71
2023/06/14 10:18:43;;;;;;;10.13;2.83;;;;;;;33.56;22.05;101507.66;4977058;28;20037;-76
2023/06/14 10:21:21;;;;;;;8.30;2.60;;;;;;;33.66;20.66;101507.75;4979411;28;20064;-72
2023/06/14 10:23:48;;;;;;;19.95;3.25;;;;;;;33.16;20.48;101510.88;4978339;28;20544;-80
2023/06/14 10:26:24;;;;;;;8.65;2.78;;;;;;;33.56;21.68;101513.13;4976058;28;20037;-80
2023/06/14 10:29:08;;;;;;;9.35;2.72;;;;;;;33.77;21.33;101509.63;4975923;28;20057;-71
2023/06/14 10:32:00;;;;;;;6.75;2.75;;;;;;;34.27;20.76;101509.09;4975810;28;20110;-80
2023/06/14 10:34:27;;;;;;;6.57;2.70;;;;;;;33.50;20.06;101503.53;4977165;28;20065;-78
2023/06/14 10:37:04;;;;;;;7.43;2.80;;;;;;;33.27;21.63;101507.31;4982237;28;20034;-65
2023/06/14 10:39:30;;;;;;;10.57;2.60;;;;;;;34.34;20.71;101505.69;4980809;28;20381;-72
2023/06/14 10:41:57;;;;;;;14.90;2.75;;;;;;;34.59;20.11;101511.78;4985075;28;20034;-72
2023/06/14 10:44:22;;;;;;;9.88;2.70;;;;;;;35.46;19.43;101515.13;4982036;28;20584;-70
2023/06/14 10:47:09;;;;;;;10.90;2.90;;;;;;;35.79;19.34;101508.41;4985424;28;20030;-66
2023/06/14 10:49:45;;;;;;;9.35;2.70;;;;;;;35.08;19.09;101506.56;4975474;28;20289;-65
2023/06/14 10:52:16;;;;;;;11.18;2.92;;;;;;;36.07;19.22;101514.09;4983024;28;20089;-70
2023/06/14 10:55:01;;;;;;;8.50;2.80;;;;;;;36.91;17.90;101504.31;4984373;28;20042;-71
2023/06/14 10:57:27;;;;;;;8.05;2.70;;;;;;;36.49;18.59;101512.94;4978979;28;20023;-64
2023/06/14 10:59:53;;;;;;;8.50;2.80;;;;;;;35.43;18.39;101500.66;4985031;28;20072;-68
2023/06/14 11:02:40;;;;;;;7.18;2.80;;;;;;;35.56;19.22;101519.66;4982061;28;20023;-62
2023/06/14 11:05:10;;;;;;;12.00;2.83;;;;;;;36.72;18.72;101519.81;4981999;28;20489;-68
2023/06/14 11:08:02;;;;;;;9.50;2.80;;;;;;;37.67;17.58;101528.00;4983671;28;20030;-71
2023/06/14 11:10:37;;;;;;;10.38;2.80;;;;;;;37.94;16.71;101515.25;4984730;28;20030;-71
2023/06/14 11:13:02;;;;;;;7.22;2.70;;;;;;;37.67;17.01;101503.19;4982850;28;20030;-67
2023/06/14 11:15:32;;;;;;;12.18;3.05;;;;;;;36.65;18.75;101515.94;4984420;28;20378;-67